Time;durP1;ratioP1;P1;durP2;ratioP2;P2;SDS_P1;SDS_P2;PMS_P1;PMS_P2;Temp;Humidity;BMP_temperature;BMP_pressure;BME280_temperature;BME280_humidity;BME280_pressure;Samples;Min_cycle;Max_cycle;Signal;HPM_P1;HPM_P2
2021/07/21 00:00:38;;;;;;;1.25;1.25;;;;;;;22.29;48.57;100847.16;6238391;23;20008;-73
2021/07/21 00:03:04;;;;;;;0.85;0.70;;;;;;;22.26;48.74;100844.25;6214226;23;20067;-77
2021/07/21 00:05:30;;;;;;;0.60;0.60;;;;;;;22.33;48.51;100852.91;6237774;23;20015;-76
2021/07/21 00:07:57;;;;;;;0.40;0.40;;;;;;;22.28;48.48;100847.50;6262155;23;20004;-77
2021/07/21 00:10:26;;;;;;;2.67;0.70;;;;;;;22.24;48.44;100849.31;6233710;23;20484;-76
2021/07/21 00:15:47;;;;;;;0.40;0.40;;;;;;;22.26;47.73;100844.25;6238399;23;20038;-76
2021/07/21 00:18:20;;;;;;;1.75;0.38;;;;;;;22.27;48.08;100843.09;6262239;23;20004;-75
2021/07/21 00:20:48;;;;;;;0.40;0.40;;;;;;;22.24;47.55;100843.75;6233863;23;20007;-75
2021/07/21 00:23:14;;;;;;;0.30;0.30;;;;;;;22.27;47.79;100845.88;6232252;23;20075;-75
2021/07/21 00:25:39;;;;;;;0.20;0.20;;;;;;;22.28;48.07;100850.28;6208561;23;20008;-76
2021/07/21 00:28:05;;;;;;;0.20;0.20;;;;;;;22.30;47.64;100859.13;6207039;23;20019;-76
2021/07/21 00:30:30;;;;;;;0.10;0.10;;;;;;;22.29;48.08;100858.28;6260778;23;20496;-75
2021/07/21 00:32:56;;;;;;;0.32;0.32;;;;;;;22.25;48.09;100862.09;6207123;23;20061;-75
2021/07/21 00:35:21;;;;;;;0.47;0.47;;;;;;;22.14;48.09;100851.34;6233689;23;20004;-76
2021/07/21 00:37:47;;;;;;;0.43;0.43;;;;;;;22.16;47.94;100852.97;6233011;23;20003;-74
2021/07/21 00:40:15;;;;;;;0.30;0.25;;;;;;;22.11;48.34;100863.13;6258862;23;20000;-75
2021/07/21 00:42:41;;;;;;;0.20;0.20;;;;;;;22.06;48.50;100868.88;6256878;23;20060;-74
2021/07/21 00:45:07;;;;;;;0.30;0.30;;;;;;;21.99;48.59;100865.81;6256711;23;20029;-75
2021/07/21 00:47:33;;;;;;;0.20;0.20;;;;;;;21.94;48.34;100863.19;6229220;23;20012;-73
2021/07/21 00:49:59;;;;;;;0.10;0.10;;;;;;;21.91;49.05;100863.88;6257329;23;20002;-73
2021/07/21 00:52:24;;;;;;;0.57;0.57;;;;;;;21.86;48.99;100855.69;6257898;23;20001;-74
2021/07/21 00:54:50;;;;;;;2.15;0.60;;;;;;;21.79;49.30;100857.03;6208268;23;20015;-74
2021/07/21 00:57:17;;;;;;;1.10;1.10;;;;;;;21.75;49.95;100853.25;6234940;23;20019;-75
2021/07/21 00:59:43;;;;;;;2.15;1.98;;;;;;;21.67;51.05;100848.56;6260902;22;20031;-73
2021/07/21 01:02:09;;;;;;;1.50;1.40;;;;;;;21.57;50.54;100843.34;6234311;23;20094;-74
2021/07/21 01:04:37;;;;;;;4.25;1.45;;;;;;;21.44;50.75;100839.56;6230814;23;20000;-73
2021/07/21 01:07:05;;;;;;;1.70;1.60;;;;;;;21.39;51.44;100848.06;6254927;23;20008;-74
2021/07/21 01:09:32;;;;;;;1.30;1.30;;;;;;;21.34;52.04;100849.06;6230915;23;20301;-74
2021/07/21 01:12:04;;;;;;;1.30;1.30;;;;;;;21.28;51.66;100855.94;6256933;23;20004;-74
2021/07/21 01:14:41;;;;;;;0.93;0.93;;;;;;;21.24;51.88;100854.97;6230290;22;19988;-73
2021/07/21 01:17:27;;;;;;;1.63;1.52;;;;;;;21.17;51.79;100857.41;6230797;23;20008;-75
2021/07/21 01:20:11;;;;;;;1.23;1.23;;;;;;;21.10;52.06;100853.16;6259296;23;20015;-75
2021/07/21 01:22:41;;;;;;;1.90;1.80;;;;;;;21.06;52.35;100857.75;6267271;23;20019;-74
2021/07/21 01:25:17;;;;;;;1.00;1.00;;;;;;;21.05;52.46;100855.28;6264460;23;20030;-74
2021/07/21 01:28:01;;;;;;;1.02;0.90;;;;;;;20.97;52.28;100843.03;6233985;23;19996;-74
2021/07/21 01:30:34;;;;;;;1.08;1.08;;;;;;;21.00;51.84;100859.06;6255466;23;20039;-74
2021/07/21 01:33:03;;;;;;;0.77;0.77;;;;;;;20.98;52.58;100857.75;6254446;23;20058;-74
2021/07/21 01:35:43;;;;;;;1.05;1.05;;;;;;;21.01;52.27;100863.47;6254107;23;20000;-73
2021/07/21 01:38:14;;;;;;;1.02;1.02;;;;;;;20.95;52.35;100856.41;6255188;23;20036;-76
2021/07/21 01:40:46;;;;;;;1.00;1.00;;;;;;;20.91;52.52;100849.91;6230731;23;20019;-79
2021/07/21 01:43:17;;;;;;;2.95;2.08;;;;;;;20.82;54.33;100849.06;6237249;23;20000;-79
2021/07/21 01:45:46;;;;;;;3.72;2.30;;;;;;;20.71;55.39;100845.78;6235483;23;20103;-77
2021/07/21 01:48:15;;;;;;;3.92;2.70;;;;;;;20.75;55.70;100864.25;6230102;23;20004;-71
2021/07/21 01:50:42;;;;;;;1.60;1.40;;;;;;;20.68;54.95;100858.34;6252280;23;20083;-76
2021/07/21 01:53:08;;;;;;;1.13;1.13;;;;;;;20.72;54.78;100864.91;6257431;23;20035;-76
2021/07/21 01:55:36;;;;;;;0.85;0.80;;;;;;;20.73;53.64;100865.72;6202081;23;20036;-73
2021/07/21 01:58:03;;;;;;;1.33;1.23;;;;;;;20.72;54.34;100859.34;6258233;23;20195;-75
2021/07/21 02:00:29;;;;;;;1.40;1.30;;;;;;;20.70;54.65;100864.41;6180016;23;20762;-75
2021/07/21 02:02:56;;;;;;;1.85;1.75;;;;;;;20.64;55.63;100862.88;6199511;23;20012;-74
2021/07/21 02:05:23;;;;;;;3.90;1.50;;;;;;;20.61;55.16;100862.72;6173110;23;20482;-75
2021/07/21 02:07:51;;;;;;;1.15;1.15;;;;;;;20.63;55.20;100866.81;6199653;23;20004;-75
2021/07/21 02:10:19;;;;;;;0.80;0.80;;;;;;;20.63;55.10;100863.22;6198486;23;20012;-74
2021/07/21 02:13:18;;;;;;;0.60;0.60;;;;;;;20.67;54.30;100864.25;6224026;23;20000;-74
2021/07/21 02:15:45;;;;;;;1.42;1.42;;;;;;;20.60;55.45;100861.91;6158153;23;20004;-74
2021/07/21 02:18:16;;;;;;;2.08;1.98;;;;;;;20.56;56.47;100860.94;6199960;23;20009;-74
2021/07/21 02:20:43;;;;;;;2.75;2.20;;;;;;;20.50;56.93;100864.97;6197337;23;20079;-74
2021/07/21 02:23:09;;;;;;;1.23;1.23;;;;;;;20.48;56.77;100858.94;6227241;23;20017;-75
2021/07/21 02:25:36;;;;;;;1.67;1.58;;;;;;;20.44;56.58;100869.06;6173155;23;20013;-74
2021/07/21 02:28:01;;;;;;;1.20;1.20;;;;;;;20.43;55.95;100867.41;6196610;23;20012;-73
2021/07/21 02:30:28;;;;;;;0.70;0.68;;;;;;;20.42;56.14;100882.44;6197234;23;20134;-74
2021/07/21 02:33:08;;;;;;;1.20;0.82;;;;;;;20.40;56.04;100869.69;6221876;23;20032;-75
2021/07/21 02:35:35;;;;;;;0.40;0.40;;;;;;;20.40;56.27;100868.88;6225322;23;20004;-75
2021/07/21 02:38:00;;;;;;;0.50;0.50;;;;;;;20.39;55.75;100868.06;6223591;23;20011;-75
2021/07/21 02:40:27;;;;;;;0.50;0.50;;;;;;;20.39;55.77;100873.59;6199103;23;20490;-75
2021/07/21 02:42:53;;;;;;;0.30;0.30;;;;;;;20.39;55.70;100873.59;6224392;23;20044;-74
2021/07/21 02:45:18;;;;;;;0.40;0.40;;;;;;;20.39;55.63;100873.59;6197637;23;20059;-73
2021/07/21 02:47:44;;;;;;;0.40;0.40;;;;;;;20.38;55.82;100866.44;6196172;23;20091;-76
2021/07/21 02:50:12;;;;;;;0.20;0.20;;;;;;;20.38;55.58;100858.09;6176096;23;20012;-75
2021/07/21 02:52:37;;;;;;;0.30;0.30;;;;;;;20.46;55.22;100867.59;6199532;23;19981;-76
2021/07/21 02:55:13;;;;;;;0.22;0.20;;;;;;;20.48;55.97;100870.06;6200041;23;20019;-75
2021/07/21 02:57:44;;;;;;;0.20;0.20;;;;;;;20.45;55.65;100870.69;6198699;23;20104;-75
2021/07/21 03:00:13;;;;;;;0.43;0.30;;;;;;;20.43;55.83;100861.84;6241721;22;20000;-74
2021/07/21 03:02:41;;;;;;;0.70;0.45;;;;;;;20.36;55.91;100860.38;6227808;23;20011;-74
2021/07/21 03:05:09;;;;;;;0.50;0.50;;;;;;;20.37;55.97;100875.06;6229854;23;20012;-76
2021/07/21 03:07:47;;;;;;;0.50;0.50;;;;;;;20.26;55.88;100863.44;6227670;23;20054;-74
2021/07/21 03:10:14;;;;;;;0.30;0.30;;;;;;;20.29;56.13;100879.44;6255252;23;20048;-74
2021/07/21 03:12:45;;;;;;;0.40;0.30;;;;;;;20.23;55.56;100877.97;6253449;23;20011;-76
2021/07/21 03:15:13;;;;;;;1.17;0.88;;;;;;;20.18;56.51;100889.19;6226896;23;20004;-75
2021/07/21 03:17:40;;;;;;;1.63;1.52;;;;;;;20.08;57.13;100884.75;6257930;23;20004;-75
2021/07/21 03:20:07;;;;;;;2.25;1.88;;;;;;;19.98;57.72;100883.06;6205225;23;20008;-75
2021/07/21 03:22:36;;;;;;;4.78;2.35;;;;;;;19.83;59.08;100877.91;6232519;23;20000;-75
2021/07/21 03:25:07;;;;;;;2.45;2.35;;;;;;;19.75;59.25;100881.44;6258193;23;20000;-75
2021/07/21 03:27:37;;;;;;;1.75;1.65;;;;;;;19.64;59.48;100886.41;6234136;23;20300;-74
2021/07/21 03:30:09;;;;;;;2.03;1.63;;;;;;;19.58;59.48;100885.75;6259500;23;20080;-76
2021/07/21 03:32:36;;;;;;;1.50;1.40;;;;;;;19.54;59.33;100893.06;6259826;23;19988;-74
2021/07/21 03:35:03;;;;;;;1.00;1.00;;;;;;;19.52;59.36;100892.53;6205923;23;20011;-76
2021/07/21 03:37:29;;;;;;;1.48;0.88;;;;;;;19.52;59.22;100898.94;6204885;23;20024;-74
2021/07/21 03:39:58;;;;;;;0.40;0.40;;;;;;;19.44;58.58;100882.22;6223541;23;20035;-73
2021/07/21 03:42:26;;;;;;;0.55;0.55;;;;;;;19.58;58.64;100901.56;6226403;23;20023;-73
2021/07/21 03:44:56;;;;;;;0.60;0.60;;;;;;;19.54;59.01;100881.97;6225459;23;20004;-73
2021/07/21 03:47:23;;;;;;;0.60;0.60;;;;;;;19.64;59.29;100890.03;6227052;23;20011;-72
2021/07/21 03:49:50;;;;;;;0.60;0.60;;;;;;;19.65;59.29;100899.16;6227020;23;20031;-73
2021/07/21 03:52:19;;;;;;;0.55;0.55;;;;;;;19.76;59.20;100905.28;6225253;23;20005;-74
2021/07/21 03:54:47;;;;;;;0.45;0.45;;;;;;;19.75;59.33;100909.19;6199779;23;20051;-72
2021/07/21 03:57:16;;;;;;;0.50;0.50;;;;;;;19.86;58.98;100916.16;6228935;23;20014;-73
2021/07/21 03:59:42;;;;;;;0.40;0.40;;;;;;;19.87;58.42;100912.22;6226589;23;20028;-72
2021/07/21 04:02:09;;;;;;;0.63;0.38;;;;;;;19.86;58.80;100905.06;6197891;23;20445;-73
2021/07/21 04:04:40;;;;;;;0.50;0.50;;;;;;;19.87;58.92;100912.22;6226454;23;19992;-73
2021/07/21 04:07:08;;;;;;;3.25;0.57;;;;;;;19.87;58.35;100909.44;6227025;23;20062;-72
2021/07/21 04:09:34;;;;;;;0.50;0.50;;;;;;;19.80;58.73;100903.53;6195002;23;20015;-72
2021/07/21 04:12:04;;;;;;;1.02;1.00;;;;;;;19.81;58.84;100913.50;6199092;23;20034;-73
2021/07/21 04:14:30;;;;;;;0.90;0.90;;;;;;;19.74;58.83;100905.59;6226307;23;20018;-72
2021/07/21 04:16:58;;;;;;;0.73;0.73;;;;;;;19.72;58.84;100910.63;6224476;23;20107;-73
2021/07/21 04:19:25;;;;;;;0.88;0.88;;;;;;;19.74;59.33;100913.09;6250737;23;20012;-72
2021/07/21 04:21:52;;;;;;;0.95;0.95;;;;;;;19.76;59.36;100921.94;6198868;23;20008;-72
2021/07/21 04:24:21;;;;;;;1.35;1.33;;;;;;;19.74;59.86;100907.53;6227254;23;20015;-72
2021/07/21 04:26:49;;;;;;;2.20;1.77;;;;;;;19.71;60.39;100909.00;6200623;23;20020;-73
2021/07/21 04:29:18;;;;;;;1.35;1.35;;;;;;;19.74;60.03;100905.59;6228440;23;20012;-73
2021/07/21 04:31:45;;;;;;;1.50;1.40;;;;;;;19.77;60.04;100907.75;6224312;23;20004;-71
2021/07/21 04:34:13;;;;;;;1.85;1.75;;;;;;;19.80;60.42;100911.84;6202785;23;20004;-72
2021/07/21 04:36:41;;;;;;;2.20;2.10;;;;;;;19.78;61.25;100905.78;6226731;23;20034;-72
2021/07/21 04:39:13;;;;;;;3.05;2.80;;;;;;;19.76;61.58;100916.38;6199609;23;20011;-71
2021/07/21 04:41:47;;;;;;;1.85;1.70;;;;;;;19.67;61.39;100914.38;6225762;23;20008;-72
2021/07/21 04:54:51;;;;;;;0.50;0.50;;;;;;;19.73;60.14;100922.53;6245417;22;20030;-72
2021/07/21 04:57:48;;;;;;;0.85;0.85;;;;;;;19.89;59.67;100934.94;6225848;23;20016;-73
2021/07/21 05:06:57;;;;;;;1.48;1.42;;;;;;;19.87;60.85;100926.09;6131499;23;20010;-72
2021/07/21 05:09:23;;;;;;;1.52;1.42;;;;;;;19.93;60.62;100922.09;6131370;23;20143;-72
2021/07/21 05:11:51;;;;;;;0.65;0.65;;;;;;;19.97;60.78;100933.34;6136932;23;20152;-73
2021/07/21 05:14:23;;;;;;;0.70;0.60;;;;;;;19.93;60.43;100916.53;6162538;23;20047;-73
2021/07/21 05:16:53;;;;;;;2.05;0.50;;;;;;;20.03;60.06;100927.38;6155348;23;20539;-72
2021/07/21 05:19:21;;;;;;;0.50;0.50;;;;;;;20.09;60.10;100924.44;6151975;23;20010;-72
2021/07/21 05:21:52;;;;;;;0.60;0.60;;;;;;;20.17;59.94;100937.56;6135717;23;20009;-72
2021/07/21 05:24:21;;;;;;;0.60;0.60;;;;;;;20.25;60.35;100939.53;6162208;23;20040;-73
2021/07/21 05:26:52;;;;;;;0.63;0.63;;;;;;;20.42;59.76;100949.13;6161963;23;20025;-72
2021/07/21 05:29:19;;;;;;;0.35;0.32;;;;;;;20.43;59.40;100934.06;6133352;23;20766;-72
2021/07/21 05:35:02;;;;;;;;;;;;;;;;;;;;;
2021/07/21 05:38:17;;;;;;;0.40;0.40;;;;;;;20.70;59.35;100955.28;6228462;23;20374;-73
2021/07/21 05:40:43;;;;;;;0.40;0.40;;;;;;;20.67;59.16;100940.06;6220368;23;20054;-72
2021/07/21 05:43:10;;;;;;;0.57;0.57;;;;;;;20.75;59.24;100947.63;6252979;23;20062;-72
2021/07/21 05:45:36;;;;;;;0.70;0.70;;;;;;;20.80;59.47;100943.06;6227506;23;20012;-73
2021/07/21 05:48:05;;;;;;;1.17;1.10;;;;;;;20.87;59.19;100944.22;6225678;23;20007;-72
2021/07/21 05:50:31;;;;;;;0.95;0.85;;;;;;;20.94;59.23;100949.31;6224811;23;20067;-72
2021/07/21 05:52:58;;;;;;;1.40;1.30;;;;;;;21.05;59.70;100956.19;6197047;23;20016;-74
2021/07/21 05:55:23;;;;;;;1.70;1.60;;;;;;;21.14;59.35;100966.50;6201892;23;20084;-73
2021/07/21 05:57:49;;;;;;;2.42;2.33;;;;;;;21.12;59.77;100961.28;6226950;23;20480;-72
2021/07/21 06:00:15;;;;;;;2.10;1.83;;;;;;;21.18;59.73;100964.72;6193636;23;20066;-73
2021/07/21 06:02:54;;;;;;;;;;;;;;;;;;;;;
2021/07/21 06:08:51;;;;;;;2.13;2.03;;;;;;;21.30;59.76;100962.09;6186192;23;20032;-74
2021/07/21 06:11:48;;;;;;;2.60;2.40;;;;;;;21.43;59.39;100979.78;6185661;23;20025;-73
2021/07/21 06:14:15;;;;;;;2.13;2.03;;;;;;;21.42;59.44;100975.38;6214373;23;20019;-72
2021/07/21 06:16:48;;;;;;;2.00;1.50;;;;;;;21.43;59.74;100969.47;6223836;23;20506;-72
2021/07/21 06:19:14;;;;;;;2.85;2.70;;;;;;;21.50;60.00;100970.97;6213161;23;20055;-73
2021/07/21 06:21:40;;;;;;;3.67;1.75;;;;;;;21.64;59.96;100977.22;6226579;23;20000;-75
2021/07/21 06:24:05;;;;;;;1.13;1.13;;;;;;;21.70;59.15;100975.91;6176609;23;20019;-76
2021/07/21 06:26:31;;;;;;;0.90;0.90;;;;;;;21.86;59.07;100975.38;6198476;23;20059;-76
2021/07/21 06:28:56;;;;;;;2.42;1.92;;;;;;;21.94;59.13;100980.13;6231555;23;20004;-75
2021/07/21 06:31:22;;;;;;;2.60;2.50;;;;;;;21.95;59.13;100973.44;6174154;23;20012;-72
2021/07/21 06:33:47;;;;;;;2.53;2.42;;;;;;;22.09;59.01;100987.16;6189127;22;20312;-72
2021/07/21 06:36:14;;;;;;;2.17;2.08;;;;;;;21.98;59.13;100964.41;6170874;23;20016;-73
2021/07/21 06:38:39;;;;;;;1.20;1.20;;;;;;;22.24;59.01;100985.78;6172461;23;20035;-73
2021/07/21 06:41:05;;;;;;;2.58;2.47;;;;;;;22.40;58.87;100997.25;6197610;23;19993;-73
2021/07/21 06:43:30;;;;;;;4.97;2.63;;;;;;;22.48;58.38;100994.44;6191094;23;20008;-75
2021/07/21 06:45:57;;;;;;;2.35;1.92;;;;;;;22.58;58.33;100992.47;6222314;23;19995;-74
2021/07/21 06:48:23;;;;;;;2.30;2.20;;;;;;;22.58;58.18;100982.13;6221841;23;20059;-73
2021/07/21 06:50:48;;;;;;;2.40;2.20;;;;;;;22.76;58.23;100999.56;6169301;23;19988;-74
2021/07/21 06:53:14;;;;;;;3.25;3.05;;;;;;;22.78;58.26;100997.28;6199394;23;20015;-74
2021/07/21 06:55:39;;;;;;;3.67;3.38;;;;;;;22.83;58.24;100999.88;6197432;23;20589;-74
2021/07/21 06:58:05;;;;;;;7.80;3.00;;;;;;;22.89;58.11;101002.47;6169887;23;20012;-75
2021/07/21 07:03:19;;;;;;;2.47;2.28;;;;;;;23.06;57.93;100996.81;6142087;23;20440;-75
2021/07/21 07:05:47;;;;;;;1.75;1.65;;;;;;;23.12;57.65;100987.13;6167246;23;20431;-74
2021/07/21 07:08:13;;;;;;;2.90;2.72;;;;;;;23.29;57.31;101002.94;6195936;23;20078;-73
2021/07/21 07:10:39;;;;;;;2.13;2.03;;;;;;;23.41;57.18;101002.19;6162997;23;20039;-74
2021/07/21 07:13:05;;;;;;;2.00;1.90;;;;;;;23.63;56.67;101008.59;6196158;23;20010;-75
2021/07/21 07:15:32;;;;;;;3.10;2.90;;;;;;;23.68;56.40;101005.59;6168247;23;20059;-74
2021/07/21 07:17:58;;;;;;;5.05;4.55;;;;;;;23.79;56.10;101023.56;6198273;23;20001;-74
2021/07/21 07:20:24;;;;;;;2.67;2.47;;;;;;;23.78;56.53;101010.75;6172445;23;20020;-74
2021/07/21 07:22:49;;;;;;;2.17;1.92;;;;;;;24.01;56.10;101029.97;6196633;23;20011;-74
2021/07/21 07:25:15;;;;;;;1.73;1.70;;;;;;;24.12;56.13;101025.56;6202660;23;19996;-75
2021/07/21 07:27:46;;;;;;;2.70;2.60;;;;;;;24.23;55.65;101032.38;6204215;23;20012;-75
2021/07/21 07:30:14;;;;;;;4.70;3.47;;;;;;;24.29;55.54;101030.19;6208008;23;20070;-76
2021/07/21 07:32:40;;;;;;;2.90;2.47;;;;;;;24.33;55.63;101024.72;6204122;22;20008;-73
2021/07/21 07:35:09;;;;;;;2.90;2.78;;;;;;;24.50;55.65;101030.13;6202957;23;20009;-76
2021/07/21 07:37:38;;;;;;;5.82;3.25;;;;;;;24.60;55.33;101028.06;6200474;23;20445;-75
2021/07/21 07:40:05;;;;;;;2.53;2.42;;;;;;;24.74;55.27;101039.75;6225346;23;20005;-75
2021/07/21 07:42:30;;;;;;;2.13;1.98;;;;;;;24.91;55.00;101036.72;6202454;23;20008;-76
2021/07/21 07:44:58;;;;;;;2.22;2.13;;;;;;;25.05;54.77;101018.75;6201666;23;20008;-76
2021/07/21 07:47:36;;;;;;;;;;;;;;;;;;;;;
2021/07/21 07:50:08;;;;;;;2.72;2.35;;;;;;;25.46;53.67;101039.25;6226667;23;20024;-75
2021/07/21 07:52:34;;;;;;;1.58;1.55;;;;;;;25.54;53.38;101027.13;6228038;23;20012;-73
2021/07/21 07:54:59;;;;;;;2.58;2.47;;;;;;;25.75;53.12;101026.13;6224665;23;20067;-73
2021/07/21 07:57:31;;;;;;;4.13;2.53;;;;;;;25.88;53.53;101024.91;6223518;23;20370;-73
2021/07/21 07:59:57;;;;;;;2.42;2.17;;;;;;;26.08;52.82;101030.69;6223516;23;20024;-75
2021/07/21 08:02:40;;;;;;;2.70;2.58;;;;;;;26.28;52.74;101037.25;6200968;23;20375;-74
2021/07/21 08:05:06;;;;;;;2.65;2.55;;;;;;;26.38;51.95;101031.09;6174631;23;20044;-75
2021/07/21 08:07:34;;;;;;;3.20;2.53;;;;;;;26.59;51.98;101042.09;6200987;23;20052;-74
2021/07/21 08:10:00;;;;;;;3.13;2.92;;;;;;;26.74;51.74;101036.88;6201032;23;20012;-72
2021/07/21 08:12:29;;;;;;;2.28;2.17;;;;;;;26.82;51.37;101033.06;6232912;23;20028;-75
2021/07/21 08:14:55;;;;;;;2.60;2.42;;;;;;;26.95;51.77;101037.38;6203298;23;20028;-75
2021/07/21 08:17:23;;;;;;;3.95;2.88;;;;;;;27.04;51.23;101040.00;6206239;23;20427;-74
2021/07/21 08:19:50;;;;;;;2.88;2.72;;;;;;;27.14;51.32;101035.84;6178956;23;20005;-73
2021/07/21 08:22:18;;;;;;;3.45;3.25;;;;;;;27.21;51.13;101036.00;6226155;23;20055;-74
2021/07/21 08:24:44;;;;;;;2.80;2.60;;;;;;;27.35;50.82;101032.75;6227870;23;20317;-74
2021/07/21 08:27:09;;;;;;;2.38;2.28;;;;;;;27.52;51.19;101035.16;6201073;23;20019;-76
2021/07/21 08:29:35;;;;;;;4.72;2.95;;;;;;;27.68;50.66;101037.88;6200915;23;20055;-75
2021/07/21 08:32:00;;;;;;;3.65;3.00;;;;;;;27.81;50.74;101029.31;6225567;23;20005;-75
2021/07/21 08:34:26;;;;;;;3.55;3.38;;;;;;;27.96;50.51;101038.84;6149139;23;20016;-74
2021/07/21 08:36:51;;;;;;;2.70;2.50;;;;;;;28.11;50.19;101042.78;6201088;23;20064;-74
2021/07/21 08:39:17;;;;;;;3.38;3.17;;;;;;;28.26;49.72;101041.88;6200092;23;20008;-75
2021/07/21 08:41:43;;;;;;;2.50;2.40;;;;;;;28.42;49.32;101038.16;6224501;23;20031;-73
2021/07/21 08:44:13;;;;;;;2.75;2.65;;;;;;;28.56;49.06;101035.59;6202243;23;20004;-74
2021/07/21 08:46:40;;;;;;;2.78;2.65;;;;;;;28.70;48.81;101038.69;6224823;23;20031;-74
2021/07/21 08:49:09;;;;;;;2.97;2.78;;;;;;;28.82;48.51;101034.84;6203161;23;20013;-75
2021/07/21 08:51:35;;;;;;;3.72;2.83;;;;;;;28.98;48.13;101043.16;6227021;23;20438;-74
2021/07/21 08:54:01;;;;;;;6.50;3.15;;;;;;;29.11;47.72;101045.78;6204114;23;20008;-74
2021/07/21 08:56:27;;;;;;;3.03;2.83;;;;;;;29.28;47.60;101050.91;6230126;23;20039;-73
2021/07/21 08:58:53;;;;;;;2.67;2.58;;;;;;;29.39;47.18;101051.84;6228278;23;20415;-76
2021/07/21 09:01:19;;;;;;;4.50;2.80;;;;;;;29.55;47.12;101048.84;6200961;23;20089;-74
2021/07/21 09:03:45;;;;;;;2.85;2.72;;;;;;;29.68;46.38;101040.97;6199978;23;20000;-75
2021/07/21 09:06:14;;;;;;;2.85;2.75;;;;;;;29.86;46.27;101051.69;6205520;23;20012;-74
2021/07/21 09:08:40;;;;;;;4.25;3.88;;;;;;;29.98;45.71;101039.34;6202883;23;20008;-75
2021/07/21 09:11:18;;;;;;;2.63;2.53;;;;;;;30.16;45.51;101048.03;6201728;23;20004;-75
2021/07/21 09:13:43;;;;;;;3.20;3.00;;;;;;;30.35;45.87;101055.50;6236784;23;20004;-75
2021/07/21 09:16:13;;;;;;;2.25;2.15;;;;;;;30.51;45.17;101039.16;6233261;23;20024;-75
2021/07/21 09:18:52;;;;;;;2.92;2.83;;;;;;;30.74;44.62;101043.81;6179553;23;20036;-73
2021/07/21 09:21:19;;;;;;;2.80;2.70;;;;;;;30.87;43.97;101038.66;6200810;23;20019;-75
2021/07/21 09:23:48;;;;;;;3.20;2.88;;;;;;;31.00;44.04;101045.63;6201294;23;20039;-75
2021/07/21 09:26:23;;;;;;;3.92;3.58;;;;;;;31.19;43.95;101036.13;6203485;23;20051;-75
2021/07/21 09:28:51;;;;;;;2.75;2.65;;;;;;;31.31;42.95;101037.78;6200106;23;20008;-75
2021/07/21 09:31:38;;;;;;;6.70;3.72;;;;;;;31.56;42.71;101042.78;6229664;23;20011;-73
2021/07/21 09:34:11;;;;;;;4.82;4.40;;;;;;;31.65;42.78;101052.53;6213204;23;20020;-75
2021/07/21 09:36:37;;;;;;;4.70;4.40;;;;;;;31.76;42.03;101046.94;6257457;23;20330;-74
2021/07/21 09:39:04;;;;;;;4.38;3.97;;;;;;;31.91;41.74;101052.66;6257607;23;20047;-73
2021/07/21 09:41:29;;;;;;;3.40;3.25;;;;;;;32.06;41.92;101043.00;6257932;23;20023;-74
2021/07/21 09:44:04;;;;;;;3.95;3.63;;;;;;;32.28;41.69;101048.75;6231304;23;20016;-74
2021/07/21 09:46:32;;;;;;;4.03;3.53;;;;;;;32.35;40.97;101043.09;6257464;23;20003;-75
2021/07/21 09:48:58;;;;;;;5.25;3.35;;;;;;;32.58;40.79;101044.72;6231318;23;19984;-75
2021/07/21 09:51:32;;;;;;;7.38;2.70;;;;;;;32.79;39.60;101044.78;6257381;23;20011;-75
2021/07/21 09:54:17;;;;;;;2.72;2.63;;;;;;;33.04;39.35;101043.94;6230088;23;20015;-75
2021/07/21 09:56:48;;;;;;;2.20;2.10;;;;;;;33.17;38.72;101050.00;6259108;23;20004;-75
2021/07/21 09:59:33;;;;;;;4.00;2.67;;;;;;;33.48;38.47;101050.38;6234902;23;20003;-74
2021/07/21 10:02:13;;;;;;;1.95;1.85;;;;;;;34.11;38.14;101050.53;6243460;23;20011;-75
2021/07/21 10:04:40;;;;;;;2.45;2.35;;;;;;;34.64;36.74;101056.28;6268927;23;20366;-75
2021/07/21 10:07:27;;;;;;;2.42;2.33;;;;;;;35.19;35.84;101046.88;6267024;23;20016;-74
2021/07/21 10:09:53;;;;;;;1.90;1.88;;;;;;;36.05;35.40;101045.09;6265597;23;20000;-74
2021/07/21 10:12:19;;;;;;;1.63;1.55;;;;;;;36.93;34.89;101057.63;6236352;23;20012;-73
2021/07/21 10:14:58;;;;;;;2.78;2.58;;;;;;;38.00;33.54;101059.63;6237430;23;20008;-74
2021/07/21 10:17:24;;;;;;;1.60;1.50;;;;;;;38.89;33.03;101060.84;6231631;23;20026;-75
2021/07/21 10:19:50;;;;;;;1.88;1.77;;;;;;;39.96;31.80;101059.09;6234532;23;20010;-74
2021/07/21 10:22:15;;;;;;;1.38;1.20;;;;;;;41.01;30.54;101056.56;6259028;23;20031;-74
2021/07/21 10:24:40;;;;;;;2.08;1.88;;;;;;;41.82;28.63;101059.78;6231167;23;20088;-73
2021/07/21 10:27:09;;;;;;;1.80;1.70;;;;;;;42.50;27.13;101056.25;6231413;23;20008;-75
2021/07/21 10:29:34;;;;;;;1.75;1.65;;;;;;;43.24;26.92;101070.78;6253027;23;20040;-74
2021/07/21 10:32:00;;;;;;;0.90;0.90;;;;;;;43.95;26.13;101061.44;6227753;23;19988;-76
2021/07/21 10:34:26;;;;;;;1.25;1.15;;;;;;;44.61;24.60;101067.25;6249792;22;20020;-75
2021/07/21 10:36:52;;;;;;;0.80;0.80;;;;;;;45.24;23.98;101060.75;6252593;23;20310;-76
2021/07/21 10:39:32;;;;;;;1.20;1.20;;;;;;;45.94;22.76;101059.41;6262662;23;20000;-74
2021/07/21 10:42:10;;;;;;;1.02;1.02;;;;;;;46.35;20.62;101058.75;6252965;23;20067;-75
2021/07/21 10:44:36;;;;;;;0.68;0.60;;;;;;;46.80;21.44;101064.38;6253071;23;20087;-75
2021/07/21 10:47:19;;;;;;;0.80;0.80;;;;;;;47.81;19.83;101069.75;6252478;22;20012;-76
2021/07/21 10:49:50;;;;;;;0.60;0.60;;;;;;;48.42;20.23;101071.53;6251753;23;20016;-74
2021/07/21 11:00:15;;;;;;;0.90;0.90;;;;;;;50.31;16.19;101057.78;6254528;23;20004;-74
2021/07/21 11:02:42;;;;;;;0.60;0.60;;;;;;;50.83;16.34;101061.31;6265930;23;19980;-75
2021/07/21 11:05:28;;;;;;;3.28;0.50;;;;;;;51.43;16.11;101063.66;6267501;22;20004;-75
2021/07/21 11:07:55;;;;;;;0.60;0.60;;;;;;;51.96;15.23;101066.41;6227790;23;20626;-76
2021/07/21 11:10:34;;;;;;;0.60;0.60;;;;;;;52.48;14.05;101055.81;6238323;23;20032;-74
2021/07/21 11:13:01;;;;;;;0.25;0.25;;;;;;;52.88;14.65;101059.03;6242912;23;19989;-77
2021/07/21 11:15:47;;;;;;;0.50;0.50;;;;;;;53.76;13.57;101058.81;6244152;23;19988;-75
2021/07/21 11:18:21;;;;;;;0.47;0.47;;;;;;;54.23;13.44;101053.16;6215823;23;20020;-77
2021/07/21 11:21:07;;;;;;;0.25;0.25;;;;;;;54.81;12.68;101056.56;6227934;23;20004;-75
2021/07/21 11:23:49;;;;;;;0.60;0.60;;;;;;;55.14;12.06;101053.44;6253395;23;20000;-73
2021/07/21 11:29:22;;;;;;;0.80;0.80;;;;;;;55.75;10.65;101042.34;6256072;22;19996;-75
2021/07/21 11:31:53;;;;;;;1.40;0.70;;;;;;;55.65;10.69;101035.41;6229378;23;20008;-77
2021/07/21 11:34:34;;;;;;;0.50;0.50;;;;;;;55.97;10.65;101038.03;6252505;23;20066;-75
2021/07/21 11:37:15;;;;;;;0.40;0.40;;;;;;;56.24;10.57;101026.09;6224142;23;20318;-74
2021/07/21 11:39:50;;;;;;;0.52;0.50;;;;;;;56.70;10.53;101034.34;6254085;23;20018;-74
2021/07/21 11:42:29;;;;;;;0.70;0.70;;;;;;;57.01;9.87;101027.81;6252306;23;20004;-76
2021/07/21 11:45:12;;;;;;;1.05;0.73;;;;;;;57.33;9.18;101024.38;6227090;23;20015;-75
2021/07/21 11:47:56;;;;;;;2.70;0.70;;;;;;;57.27;8.82;101020.84;6251098;23;20424;-75
2021/07/21 11:50:30;;;;;;;0.95;0.70;;;;;;;57.19;8.71;101020.81;6224222;23;20004;-75
2021/07/21 11:52:56;;;;;;;0.80;0.80;;;;;;;57.09;8.71;101016.84;6251949;23;20004;-76
2021/07/21 11:55:26;;;;;;;0.63;0.57;;;;;;;56.95;8.75;101022.13;6252510;23;20004;-75
2021/07/21 11:57:53;;;;;;;0.40;0.40;;;;;;;56.81;8.98;101015.59;6250318;23;20004;-74
2021/07/21 12:00:23;;;;;;;0.40;0.40;;;;;;;57.34;8.88;101014.97;6253452;23;20061;-75
2021/07/21 12:03:08;;;;;;;0.40;0.40;;;;;;;58.09;8.35;101019.06;6226738;23;20275;-75
2021/07/21 12:05:35;;;;;;;1.15;0.70;;;;;;;58.22;8.00;101024.72;6255747;23;20040;-75
2021/07/21 12:08:06;;;;;;;0.77;0.77;;;;;;;58.47;7.40;101027.03;6252001;23;20008;-74
2021/07/21 12:10:36;;;;;;;0.45;0.45;;;;;;;58.63;7.81;101010.84;6249826;23;19996;-74
2021/07/21 12:13:09;;;;;;;0.40;0.40;;;;;;;59.13;7.81;101016.09;6227011;23;20066;-75
2021/07/21 12:15:36;;;;;;;0.40;0.40;;;;;;;59.39;7.35;101019.84;6253446;23;20313;-75
2021/07/21 12:18:09;;;;;;;0.40;0.40;;;;;;;59.78;7.33;101014.41;6226584;23;20035;-76
2021/07/21 12:20:35;;;;;;;0.50;0.50;;;;;;;60.16;7.18;101016.19;6225681;23;20200;-74